Time;durP1;ratioP1;P1;durP2;ratioP2;P2;SDS_P1;SDS_P2;PMS_P1;PMS_P2;Temp;Humidity;BMP_temperature;BMP_pressure;BME280_temperature;BME280_humidity;BME280_pressure;Samples;Min_cycle;Max_cycle;Signal;HPM_P1;HPM_P2
2022/11/01 00:01:49;;;;;;;27.02;14.18;;;12.20;99.90;;;;;;4920569;29;20608;-64
2022/11/01 00:04:15;;;;;;;25.55;14.25;;;12.10;99.90;;;;;;4931267;29;20497;-65
2022/11/01 00:06:41;;;;;;;30.00;14.02;;;12.20;99.90;;;;;;4923147;29;20078;-65
2022/11/01 00:09:06;;;;;;;28.30;13.55;;;12.20;99.90;;;;;;4906645;29;20465;-64
2022/11/01 00:11:32;;;;;;;28.67;14.65;;;12.10;99.90;;;;;;4923216;29;20031;-65
2022/11/01 00:13:58;;;;;;;25.75;13.75;;;12.10;99.90;;;;;;4922923;29;20468;-65
2022/11/01 00:16:24;;;;;;;26.92;12.90;;;12.20;99.90;;;;;;4921782;29;20115;-64
2022/11/01 00:18:49;;;;;;;29.23;13.40;;;12.10;99.90;;;;;;4921952;29;20039;-64
2022/11/01 00:21:15;;;;;;;26.40;13.93;;;12.10;99.90;;;;;;4923440;29;20042;-64
2022/11/01 00:23:42;;;;;;;22.35;12.63;;;12.10;99.90;;;;;;4933440;29;20436;-64
2022/11/01 00:26:12;;;;;;;30.73;13.73;;;12.10;99.90;;;;;;4921573;29;20035;-65
2022/11/01 00:28:38;;;;;;;24.08;13.25;;;12.10;99.90;;;;;;4918322;29;20043;-64
2022/11/01 00:31:04;;;;;;;25.35;13.02;;;12.20;99.90;;;;;;4922617;29;20082;-64
2022/11/01 00:33:29;;;;;;;25.77;13.27;;;12.10;99.90;;;;;;4907513;29;20444;-64
2022/11/01 00:35:59;;;;;;;24.42;13.05;;;12.20;99.90;;;;;;4922529;29;20047;-65
2022/11/01 00:38:25;;;;;;;27.50;13.48;;;12.20;99.90;;;;;;4909757;29;20040;-62
2022/11/01 00:40:51;;;;;;;25.65;13.00;;;12.20;99.90;;;;;;4930209;29;20055;-65
2022/11/01 00:43:16;;;;;;;25.88;12.80;;;12.20;99.90;;;;;;4931814;29;20456;-64
2022/11/01 00:45:43;;;;;;;28.15;14.18;;;12.20;99.90;;;;;;4929621;29;20126;-65
2022/11/01 00:48:09;;;;;;;29.90;12.70;;;12.30;99.90;;;;;;4932599;29;20420;-64
2022/11/01 00:50:34;;;;;;;25.58;13.10;;;12.30;99.90;;;;;;4930396;29;20040;-64
2022/11/01 00:53:00;;;;;;;26.73;13.57;;;12.30;99.90;;;;;;4925952;29;20043;-64
2022/11/01 00:55:26;;;;;;;25.88;12.60;;;12.30;99.90;;;;;;4926628;29;20103;-64
2022/11/01 00:57:51;;;;;;;24.20;12.85;;;12.30;99.90;;;;;;4926132;29;20143;-64
2022/11/01 01:00:17;;;;;;;23.83;11.07;;;12.30;99.90;;;;;;4918371;29;20083;-63
2022/11/01 01:02:46;;;;;;;23.15;12.38;;;12.40;99.90;;;;;;4926967;29;20050;-64
2022/11/01 01:05:12;;;;;;;22.20;11.70;;;12.30;99.90;;;;;;4926380;29;20079;-65
2022/11/01 01:07:37;;;;;;;23.35;11.40;;;12.40;99.90;;;;;;4920746;29;20075;-65
2022/11/01 01:10:05;;;;;;;23.48;11.75;;;12.40;99.90;;;;;;4918352;29;20495;-64
2022/11/01 01:12:31;;;;;;;23.98;11.48;;;12.40;99.90;;;;;;4925591;29;20036;-63
2022/11/01 01:14:57;;;;;;;19.90;11.32;;;12.40;99.90;;;;;;4924244;29;20049;-63
2022/11/01 01:17:22;;;;;;;26.15;11.38;;;12.40;99.90;;;;;;4904611;29;20059;-64
2022/11/01 01:19:48;;;;;;;24.10;11.48;;;12.40;99.90;;;;;;4918691;29;20071;-63
2022/11/01 01:22:14;;;;;;;22.77;10.80;;;12.40;99.90;;;;;;4920230;29;20039;-65
2022/11/01 01:24:44;;;;;;;22.17;11.02;;;12.50;99.90;;;;;;4924564;29;20494;-64
2022/11/01 01:27:11;;;;;;;24.35;10.48;;;12.50;99.90;;;;;;4904164;29;20442;-64
2022/11/01 01:29:40;;;;;;;18.83;10.63;;;12.60;99.90;;;;;;4918804;29;20525;-65
2022/11/01 01:32:07;;;;;;;23.35;10.35;;;12.60;99.90;;;;;;4905535;29;20031;-63
2022/11/01 01:34:33;;;;;;;20.42;10.98;;;12.60;99.90;;;;;;4922125;29;20043;-64
2022/11/01 01:36:58;;;;;;;18.13;9.48;;;12.60;99.90;;;;;;4926729;29;20051;-64
2022/11/01 01:39:24;;;;;;;21.60;10.27;;;12.70;99.90;;;;;;4926403;29;20047;-65
2022/11/01 01:41:55;;;;;;;19.75;9.93;;;12.70;99.90;;;;;;4922264;29;20038;-64
2022/11/01 01:44:46;;;;;;;17.48;10.25;;;12.70;99.90;;;;;;4924404;29;20043;-65
2022/11/01 01:47:25;;;;;;;19.60;9.00;;;12.70;99.90;;;;;;4921717;29;20046;-65
2022/11/01 01:49:55;;;;;;;19.83;10.50;;;12.70;99.90;;;;;;4905124;29;20036;-65
2022/11/01 01:52:21;;;;;;;;;;;12.70;99.90;;;;;;4921306;29;20607;-65
2022/11/01 01:54:49;;;;;;;19.98;9.75;;;12.70;99.90;;;;;;4922598;29;19940;-64
2022/11/01 01:57:16;;;;;;;16.55;9.00;;;12.70;99.90;;;;;;4928075;29;20064;-64
2022/11/01 01:59:42;;;;;;;16.77;9.15;;;12.70;99.90;;;;;;4911518;29;20049;-63
2022/11/01 02:02:08;;;;;;;17.00;9.65;;;12.70;99.90;;;;;;4925915;29;20055;-64
2022/11/01 02:04:41;;;;;;;21.10;9.75;;;12.70;99.90;;;;;;4918292;29;20123;-63
2022/11/01 02:07:08;;;;;;;18.38;9.63;;;12.80;99.90;;;;;;4931054;29;20094;-63
2022/11/01 02:09:34;;;;;;;18.58;8.70;;;12.80;99.90;;;;;;4913176;29;20032;-64
2022/11/01 02:12:01;;;;;;;17.95;9.68;;;12.80;99.90;;;;;;4924192;29;20055;-64
2022/11/01 02:14:27;;;;;;;17.27;8.95;;;12.80;99.90;;;;;;4923466;29;20050;-65
2022/11/01 02:17:19;;;;;;;20.38;9.38;;;12.80;99.90;;;;;;4924996;29;20074;-64
2022/11/01 02:20:12;;;;;;;22.23;9.77;;;12.80;99.90;;;;;;4917716;29;20059;-64
2022/11/01 02:23:05;;;;;;;18.20;9.57;;;12.80;99.90;;;;;;4918882;29;20055;-64
2022/11/01 02:26:12;;;;;;;16.38;9.05;;;12.90;99.90;;;;;;4923802;29;20583;-63
2022/11/01 02:28:56;;;;;;;16.58;8.55;;;12.90;99.90;;;;;;4923324;29;20035;-63
2022/11/01 02:32:01;;;;;;;17.90;8.77;;;12.90;99.90;;;;;;4922217;29;20036;-64
2022/11/01 02:34:45;;;;;;;20.40;8.52;;;13.00;99.90;;;;;;4893471;29;20161;-64
2022/11/01 02:37:51;;;;;;;19.00;8.68;;;13.10;99.90;;;;;;4908873;29;20040;-63
2022/11/01 02:40:45;;;;;;;13.68;8.10;;;13.10;99.90;;;;;;4901962;29;20600;-64
2022/11/01 02:43:20;;;;;;;15.60;8.70;;;13.10;99.90;;;;;;4922139;29;20127;-65
2022/11/01 02:45:49;;;;;;;16.38;8.13;;;13.10;99.90;;;;;;4923578;29;20054;-64
2022/11/01 02:48:19;;;;;;;19.38;8.48;;;13.10;99.90;;;;;;4923701;29;20687;-64
2022/11/01 02:50:54;;;;;;;15.70;8.15;;;13.10;99.90;;;;;;4925967;29;20047;-64
2022/11/01 02:53:20;;;;;;;17.85;8.70;;;13.10;99.90;;;;;;4927521;29;20563;-63
2022/11/01 02:55:45;;;;;;;16.45;8.30;;;13.20;99.90;;;;;;4925139;29;20119;-63
2022/11/01 02:58:23;;;;;;;14.77;8.15;;;13.10;99.90;;;;;;4921869;29;20043;-65
2022/11/01 03:00:49;;;;;;;16.92;8.05;;;13.20;99.90;;;;;;4922257;29;20086;-64
2022/11/01 03:03:20;;;;;;;17.80;8.23;;;13.10;99.90;;;;;;4919924;29;20067;-65
2022/11/01 03:05:56;;;;;;;17.92;8.23;;;13.10;99.90;;;;;;4922813;29;22302;-64
2022/11/01 03:08:35;;;;;;;17.65;8.15;;;13.20;99.90;;;;;;4925079;29;20038;-64
2022/11/01 03:11:13;;;;;;;17.05;7.95;;;13.20;99.90;;;;;;4931927;29;20138;-64
2022/11/01 03:13:56;;;;;;;13.50;7.50;;;13.20;99.90;;;;;;4904139;29;20122;-64
2022/11/01 03:16:34;;;;;;;15.13;7.72;;;13.20;99.90;;;;;;4932659;29;20044;-64
2022/11/01 03:19:21;;;;;;;13.45;7.28;;;13.20;99.90;;;;;;4932397;29;20048;-65
2022/11/01 03:21:57;;;;;;;16.00;7.85;;;13.20;99.90;;;;;;4922592;29;20051;-64
2022/11/01 03:24:30;;;;;;;15.85;7.55;;;13.20;99.90;;;;;;4927522;29;20048;-65
2022/11/01 03:27:14;;;;;;;15.38;7.60;;;13.30;99.90;;;;;;4922911;29;20400;-64
2022/11/01 03:29:43;;;;;;;16.63;6.72;;;13.40;99.90;;;;;;4923155;29;20043;-65
2022/11/01 03:32:09;;;;;;;16.50;6.95;;;13.50;99.90;;;;;;4912132;29;20055;-64
2022/11/01 03:34:36;;;;;;;12.50;7.05;;;13.70;99.90;;;;;;4924374;29;20039;-64
2022/11/01 03:37:07;;;;;;;12.27;6.57;;;14.00;99.90;;;;;;4923224;29;20353;-64
2022/11/01 03:39:44;;;;;;;11.55;5.95;;;14.00;99.90;;;;;;4924930;29;20467;-64
2022/11/01 03:42:14;;;;;;;15.98;6.40;;;14.20;99.90;;;;;;4924841;29;20395;-64
2022/11/01 03:44:49;;;;;;;10.73;6.13;;;14.20;99.90;;;;;;4921431;29;20067;-63
2022/11/01 03:47:15;;;;;;;11.52;5.90;;;14.40;99.90;;;;;;4920403;29;20110;-64
2022/11/01 03:49:40;;;;;;;12.90;6.22;;;14.30;99.90;;;;;;4913806;29;20040;-65
2022/11/01 03:52:07;;;;;;;16.50;7.13;;;14.30;99.90;;;;;;4915016;29;20043;-65
2022/11/01 03:54:32;;;;;;;16.27;6.03;;;14.30;99.90;;;;;;4907401;29;20049;-64
2022/11/01 03:56:58;;;;;;;12.40;5.95;;;14.40;99.90;;;;;;4922541;29;20508;-65
2022/11/01 03:59:23;;;;;;;13.13;5.55;;;14.40;99.90;;;;;;4920086;29;21548;-65
2022/11/01 04:01:49;;;;;;;12.77;6.03;;;14.30;99.90;;;;;;4921785;29;20043;-63
2022/11/01 04:04:15;;;;;;;12.75;5.35;;;14.40;99.90;;;;;;4906081;29;20134;-63
2022/11/01 04:06:40;;;;;;;10.73;5.03;;;14.40;99.90;;;;;;4927363;29;20085;-64
2022/11/01 04:09:06;;;;;;;11.05;6.07;;;14.40;99.90;;;;;;4921977;29;20031;-64
2022/11/01 04:11:31;;;;;;;13.25;5.43;;;14.30;99.90;;;;;;4924849;29;20039;-64
2022/11/01 04:20:31;;;;;;;11.27;5.72;;;14.20;99.90;;;;;;4927250;29;20072;-64
2022/11/01 04:22:11;;;;;;;9.80;5.53;;;14.20;99.90;;;;;;4924141;29;20047;-64
2022/11/01 04:24:37;;;;;;;13.32;6.03;;;14.20;99.90;;;;;;4925473;29;20039;-64
2022/11/01 04:27:03;;;;;;;12.52;5.53;;;14.10;99.90;;;;;;4912696;29;20035;-64
2022/11/01 04:29:28;;;;;;;15.52;6.10;;;14.10;99.90;;;;;;4912909;29;20416;-65
2022/11/01 04:31:54;;;;;;;12.77;5.90;;;14.20;99.90;;;;;;4897793;29;20071;-65
2022/11/01 04:34:41;;;;;;;12.23;5.68;;;14.20;99.90;;;;;;4928596;29;20483;-64
2022/11/01 04:37:05;;;;;;;14.43;6.38;;;14.30;99.90;;;;;;4914670;29;20476;-64
2022/11/01 04:39:30;;;;;;;15.40;5.28;;;14.40;99.90;;;;;;4922723;29;20102;-63
2022/11/01 04:41:56;;;;;;;13.27;6.13;;;14.40;99.90;;;;;;4923579;29;20054;-64
2022/11/01 04:44:21;;;;;;;11.23;5.20;;;14.40;99.90;;;;;;4921914;29;20038;-64
2022/11/01 04:46:47;;;;;;;10.10;5.53;;;14.30;99.90;;;;;;4927350;29;20683;-64
2022/11/01 04:49:12;;;;;;;9.68;4.70;;;14.40;99.90;;;;;;4918232;29;20044;-63
2022/11/01 04:51:39;;;;;;;10.13;5.38;;;14.50;99.90;;;;;;4923088;29;20039;-66
2022/11/01 04:54:05;;;;;;;11.60;5.70;;;14.70;99.90;;;;;;4923763;29;20046;-64
2022/11/01 04:56:31;;;;;;;14.23;5.70;;;14.80;99.90;;;;;;4933051;29;20051;-62
2022/11/01 04:58:57;;;;;;;10.07;5.65;;;14.70;99.90;;;;;;4923162;29;20066;-63
2022/11/01 05:01:22;;;;;;;9.90;5.00;;;14.70;99.90;;;;;;4907884;29;20506;-64
2022/11/01 05:03:48;;;;;;;9.85;5.80;;;14.70;99.90;;;;;;4922309;29;20129;-64
2022/11/01 05:06:14;;;;;;;9.18;5.45;;;14.80;99.90;;;;;;4922085;29;20126;-63
2022/11/01 05:08:39;;;;;;;8.55;5.22;;;14.80;99.90;;;;;;4912151;29;20035;-63
2022/11/01 05:11:05;;;;;;;8.50;5.05;;;14.80;99.90;;;;;;4921478;29;20080;-64
2022/11/01 05:13:30;;;;;;;10.50;5.32;;;14.80;99.90;;;;;;4922270;29;20036;-65
2022/11/01 05:15:56;;;;;;;9.57;5.50;;;14.90;99.90;;;;;;4922666;29;20051;-64
2022/11/01 05:18:22;;;;;;;11.68;5.18;;;14.90;99.90;;;;;;4921050;29;20055;-64
2022/11/01 05:20:47;;;;;;;9.77;5.07;;;15.00;99.90;;;;;;4908720;29;20066;-65
2022/11/01 05:23:13;;;;;;;11.02;5.03;;;14.90;99.90;;;;;;4920911;29;20127;-64
2022/11/01 05:25:38;;;;;;;11.60;4.82;;;14.90;99.90;;;;;;4922842;29;20059;-63
2022/11/01 05:28:07;;;;;;;10.00;5.22;;;15.10;99.90;;;;;;4927764;29;20040;-64
2022/11/01 05:30:34;;;;;;;14.55;5.20;;;15.00;99.90;;;;;;4907282;29;20164;-63
2022/11/01 05:33:01;;;;;;;11.45;5.10;;;15.00;99.90;;;;;;4931814;29;20040;-64
2022/11/01 05:35:28;;;;;;;10.80;5.47;;;15.00;99.90;;;;;;4925849;29;20047;-63
2022/11/01 05:37:54;;;;;;;9.38;4.97;;;15.10;99.90;;;;;;4929452;29;20040;-64
2022/11/01 05:40:21;;;;;;;10.50;5.15;;;15.00;99.90;;;;;;4914109;29;20055;-62
2022/11/01 05:42:46;;;;;;;9.85;4.70;;;14.90;99.90;;;;;;4908529;29;20071;-63
2022/11/01 05:45:12;;;;;;;10.85;4.95;;;15.00;99.90;;;;;;4927492;29;20032;-64
2022/11/01 05:47:41;;;;;;;9.70;5.13;;;15.00;99.90;;;;;;4917571;29;20377;-64
2022/11/01 05:50:12;;;;;;;8.10;4.25;;;15.20;99.90;;;;;;4926970;29;20122;-63
2022/11/01 05:52:38;;;;;;;7.50;4.55;;;15.20;99.90;;;;;;4925309;29;20032;-64
2022/11/01 05:55:06;;;;;;;7.60;4.65;;;15.20;99.90;;;;;;4908336;29;20468;-63
2022/11/01 05:57:32;;;;;;;9.10;4.65;;;15.10;99.90;;;;;;4926294;29;20062;-62
2022/11/01 05:59:57;;;;;;;10.52;4.38;;;15.20;99.90;;;;;;4924292;29;20059;-62
2022/11/01 06:02:23;;;;;;;13.68;4.60;;;15.20;99.90;;;;;;4918261;29;20056;-64
2022/11/01 06:04:48;;;;;;;8.98;4.47;;;15.20;99.90;;;;;;4903491;29;20039;-63
2022/11/01 06:07:14;;;;;;;11.65;5.03;;;15.30;99.90;;;;;;4934861;29;20110;-65
2022/11/01 06:09:40;;;;;;;7.97;4.90;;;15.30;99.90;;;;;;4935134;29;20031;-63
2022/11/01 06:12:06;;;;;;;9.10;4.50;;;15.30;99.90;;;;;;4933158;29;20091;-64
2022/11/01 06:14:31;;;;;;;8.60;3.42;;;15.30;99.90;;;;;;4918507;29;20035;-62
2022/11/01 06:16:57;;;;;;;12.00;3.13;;;15.20;99.90;;;;;;4928230;29;20071;-65
2022/11/01 06:19:22;;;;;;;6.85;2.40;;;15.20;99.90;;;;;;4935261;29;20055;-62
2022/11/01 06:21:48;;;;;;;6.60;1.77;;;15.10;99.90;;;;;;4936555;29;20476;-63
2022/11/01 06:24:13;;;;;;;6.38;1.52;;;15.00;99.90;;;;;;4932253;29;20062;-65
2022/11/01 06:26:39;;;;;;;8.05;1.60;;;14.90;99.90;;;;;;4934037;29;20043;-63
2022/11/01 06:29:04;;;;;;;5.05;1.35;;;14.80;99.90;;;;;;4927696;29;20102;-64
2022/11/01 06:31:30;;;;;;;1.90;1.08;;;14.70;99.90;;;;;;4922206;29;20079;-63
2022/11/01 06:33:56;;;;;;;4.72;1.33;;;14.70;99.90;;;;;;4930837;29;20040;-64
2022/11/01 06:36:22;;;;;;;5.10;1.60;;;14.60;99.90;;;;;;4930691;29;20038;-63
2022/11/01 06:38:48;;;;;;;2.90;1.20;;;14.50;99.90;;;;;;4920130;29;20055;-63
2022/11/01 06:41:14;;;;;;;2.38;1.10;;;14.30;99.90;;;;;;4929849;29;20039;-63
2022/11/01 06:43:40;;;;;;;5.75;1.50;;;14.30;99.90;;;;;;4932986;29;20522;-64
2022/11/01 06:46:05;;;;;;;3.50;1.20;;;14.20;99.90;;;;;;4935077;29;20043;-65
2022/11/01 06:48:31;;;;;;;15.60;1.83;;;14.10;99.90;;;;;;4934592;29;20038;-63
2022/11/01 06:50:56;;;;;;;2.65;1.00;;;14.10;99.90;;;;;;4928358;29;20051;-64
2022/11/01 06:53:23;;;;;;;3.50;1.20;;;14.00;99.90;;;;;;4917402;29;20040;-63
2022/11/01 06:55:50;;;;;;;3.65;1.45;;;13.90;99.90;;;;;;4933960;29;20059;-64
2022/11/01 06:58:15;;;;;;;6.70;2.03;;;13.80;99.90;;;;;;4926844;29;20078;-64
2022/11/01 07:00:41;;;;;;;4.50;1.55;;;13.70;99.90;;;;;;4914890;29;20055;-65
2022/11/01 07:03:11;;;;;;;2.15;1.08;;;13.70;99.90;;;;;;4925381;29;20048;-63
2022/11/01 07:05:37;;;;;;;5.07;1.60;;;13.60;99.90;;;;;;4932492;29;20036;-64
2022/11/01 07:08:09;;;;;;;2.47;1.10;;;13.70;99.90;;;;;;4910803;29;20700;-64
2022/11/01 07:10:37;;;;;;;3.72;1.33;;;13.70;99.90;;;;;;4934404;29;20065;-63
2022/11/01 07:13:04;;;;;;;6.18;1.40;;;13.60;99.90;;;;;;4933277;29;20057;-64
2022/11/01 07:15:30;;;;;;;5.53;1.20;;;13.60;99.90;;;;;;4922883;29;20047;-64
2022/11/01 07:17:57;;;;;;;3.13;0.98;;;13.70;99.90;;;;;;4922053;29;20448;-65
2022/11/01 07:20:24;;;;;;;5.20;1.15;;;13.60;99.90;;;;;;4907245;29;20063;-64
2022/11/01 07:23:00;;;;;;;3.65;1.20;;;13.50;99.90;;;;;;4934242;29;20078;-64
2022/11/01 07:25:27;;;;;;;4.80;1.10;;;13.60;99.90;;;;;;4929633;29;20142;-63
2022/11/01 07:27:53;;;;;;;3.28;1.00;;;13.60;99.90;;;;;;4933894;29;20043;-65
2022/11/01 07:30:19;;;;;;;5.57;1.00;;;13.60;99.90;;;;;;4933025;29;20047;-62
2022/11/01 07:32:45;;;;;;;3.33;0.93;;;13.50;99.90;;;;;;4928455;29;20036;-63
2022/11/01 07:35:10;;;;;;;4.30;1.15;;;13.50;99.90;;;;;;4934576;29;20043;-63
2022/11/01 07:37:36;;;;;;;3.47;0.80;;;13.50;99.90;;;;;;4932348;29;20039;-64
2022/11/01 07:40:03;;;;;;;4.20;1.35;;;13.60;99.90;;;;;;4934006;29;20083;-62
2022/11/01 07:42:29;;;;;;;3.03;0.70;;;13.60;99.90;;;;;;4934763;29;20050;-63
2022/11/01 07:44:54;;;;;;;6.95;1.10;;;13.80;99.90;;;;;;4930059;29;20140;-63
2022/11/01 07:47:20;;;;;;;3.78;1.10;;;13.80;99.90;;;;;;4915323;29;20552;-63
2022/11/01 07:49:46;;;;;;;2.55;0.90;;;13.90;99.90;;;;;;4931859;29;20503;-62
2022/11/01 07:52:12;;;;;;;4.00;1.10;;;13.90;99.90;;;;;;4932955;29;20044;-63
2022/11/01 07:54:38;;;;;;;2.80;0.93;;;14.10;99.90;;;;;;4932764;29;20552;-62
2022/11/01 07:57:03;;;;;;;6.88;1.35;;;14.30;99.90;;;;;;4931170;29;20066;-63
2022/11/01 07:59:29;;;;;;;3.90;1.13;;;14.40;99.90;;;;;;4908839;29;20095;-62
2022/11/01 08:01:55;;;;;;;4.53;1.00;;;14.50;99.90;;;;;;4933543;29;20039;-64
2022/11/01 08:04:20;;;;;;;13.45;3.70;;;14.60;99.90;;;;;;4931492;29;20039;-65
2022/11/01 08:06:46;;;;;;;4.43;1.08;;;14.60;99.90;;;;;;4934238;29;20036;-63
2022/11/01 08:09:11;;;;;;;7.18;1.10;;;14.60;99.90;;;;;;4934993;29;20040;-64
2022/11/01 08:11:37;;;;;;;6.25;1.10;;;14.60;99.90;;;;;;4934644;29;20032;-64
2022/11/01 08:14:02;;;;;;;5.55;1.33;;;14.60;99.90;;;;;;4953140;29;20066;-64
2022/11/01 08:16:28;;;;;;;7.85;1.52;;;14.60;99.90;;;;;;4916688;29;20048;-64
2022/11/01 08:18:53;;;;;;;7.30;1.25;;;14.50;99.90;;;;;;4935066;29;20044;-63
2022/11/01 08:21:19;;;;;;;9.50;1.45;;;14.50;99.90;;;;;;4934318;29;20039;-65
2022/11/01 08:23:45;;;;;;;6.78;1.25;;;14.50;99.90;;;;;;4930392;29;20035;-65
2022/11/01 08:26:11;;;;;;;8.15;1.48;;;14.50;99.90;;;;;;4929635;29;20047;-63
2022/11/01 08:28:36;;;;;;;11.70;1.80;;;14.60;99.90;;;;;;4935004;29;20397;-62
2022/11/01 08:31:07;;;;;;;7.93;1.38;;;14.60;99.90;;;;;;4930571;29;20050;-65
2022/11/01 08:33:33;;;;;;;13.15;1.77;;;14.60;99.90;;;;;;4929913;29;20039;-63
2022/11/01 08:35:59;;;;;;;10.75;1.90;;;14.60;99.90;;;;;;4934272;29;20122;-64
2022/11/01 08:38:26;;;;;;;15.77;1.75;;;14.60;99.90;;;;;;4934175;29;20131;-64
2022/11/01 08:40:52;;;;;;;7.78;1.60;;;14.60;99.90;;;;;;4932421;29;20055;-63
2022/11/01 08:43:18;;;;;;;10.27;1.70;;;14.70;99.90;;;;;;4911568;29;20492;-65
2022/11/01 08:45:44;;;;;;;9.02;1.95;;;14.70;99.90;;;;;;4924498;29;20445;-65
2022/11/01 08:48:10;;;;;;;10.07;2.20;;;14.70;99.90;;;;;;4928661;29;20071;-62
2022/11/01 08:50:36;;;;;;;11.18;1.75;;;14.70;99.90;;;;;;4928648;29;20103;-63
2022/11/01 08:53:07;;;;;;;7.70;1.60;;;14.80;99.90;;;;;;4908658;29;20047;-63
2022/11/01 08:55:33;;;;;;;8.95;1.73;;;14.80;99.90;;;;;;4933272;29;20102;-62
2022/11/01 08:57:59;;;;;;;12.35;1.90;;;14.70;99.90;;;;;;4923690;29;20098;-63
2022/11/01 09:00:25;;;;;;;11.35;2.03;;;14.70;99.90;;;;;;4920321;29;20071;-65
2022/11/01 09:02:50;;;;;;;13.98;1.77;;;14.70;99.90;;;;;;4915918;29;20091;-63
2022/11/01 09:05:16;;;;;;;13.27;1.90;;;14.70;99.90;;;;;;4917159;29;20043;-64
2022/11/01 09:07:42;;;;;;;9.38;1.90;;;14.80;99.90;;;;;;4928808;29;20488;-63
2022/11/01 09:10:09;;;;;;;16.98;2.83;;;14.80;99.90;;;;;;4929847;29;20043;-63
2022/11/01 09:12:35;;;;;;;10.35;1.95;;;14.90;99.90;;;;;;4928599;29;20071;-64
2022/11/01 09:15:01;;;;;;;14.27;2.38;;;14.90;99.90;;;;;;4911633;29;20047;-64
2022/11/01 09:17:27;;;;;;;11.95;2.45;;;15.00;99.90;;;;;;4924227;29;20039;-63
2022/11/01 09:19:52;;;;;;;14.70;2.65;;;15.00;99.90;;;;;;4929639;29;20067;-63
2022/11/01 09:22:18;;;;;;;14.75;2.30;;;15.00;99.90;;;;;;4931314;29;20382;-62
2022/11/01 09:24:44;;;;;;;13.85;2.25;;;15.00;99.90;;;;;;4914311;29;20698;-63
2022/11/01 09:27:09;;;;;;;13.70;2.33;;;15.10;99.60;;;;;;4930929;29;20040;-64
2022/11/01 09:29:35;;;;;;;10.30;2.10;;;15.10;99.90;;;;;;4911368;29;20051;-63
2022/11/01 09:32:00;;;;;;;9.55;2.17;;;15.10;99.90;;;;;;4928345;29;20063;-65
2022/11/01 09:34:26;;;;;;;11.23;2.30;;;15.10;98.70;;;;;;4894762;29;20087;-64
2022/11/01 09:36:52;;;;;;;13.38;1.63;;;15.20;99.90;;;;;;4892305;29;20603;-65
2022/11/01 09:39:20;;;;;;;17.70;3.13;;;15.20;99.90;;;;;;4916942;29;20058;-63
2022/11/01 09:41:54;;;;;;;11.05;2.42;;;15.20;98.80;;;;;;4928372;29;20520;-63
2022/11/01 09:44:27;;;;;;;13.13;1.92;;;15.10;98.70;;;;;;4927890;29;20048;-62
2022/11/01 09:47:19;;;;;;;12.73;2.45;;;15.00;99.00;;;;;;4908452;29;20039;-64
2022/11/01 09:49:49;;;;;;;12.30;2.63;;;15.00;99.80;;;;;;4910579;29;20070;-64
2022/11/01 09:52:20;;;;;;;9.60;2.10;;;15.00;99.90;;;;;;4914152;29;21649;-63
2022/11/01 09:54:46;;;;;;;;;;;15.00;99.90;;;;;;4930427;29;20335;-64
2022/11/01 09:57:11;;;;;;;9.20;1.98;;;15.10;99.90;;;;;;4898835;29;19919;-63
2022/11/01 10:00:08;;;;;;;7.72;1.58;;;15.10;99.90;;;;;;4911851;29;20122;-62
2022/11/01 10:03:06;;;;;;;10.90;2.08;;;15.20;99.90;;;;;;4894784;29;20134;-64
2022/11/01 10:05:51;;;;;;;10.32;2.58;;;15.30;99.90;;;;;;4915648;29;20086;-64
2022/11/01 10:08:16;;;;;;;7.32;2.47;;;15.30;99.90;;;;;;4924845;29;20078;-64
2022/11/01 10:11:05;;;;;;;15.60;3.03;;;15.40;99.90;;;;;;4929440;29;20612;-62
2022/11/01 10:13:49;;;;;;;12.30;2.35;;;15.50;99.90;;;;;;4913505;29;20043;-62
2022/11/01 10:16:29;;;;;;;14.90;2.88;;;15.50;99.90;;;;;;4921166;29;20106;-64
2022/11/01 10:19:01;;;;;;;11.90;2.67;;;15.40;99.40;;;;;;4925553;29;20400;-65
2022/11/01 10:21:31;;;;;;;11.23;1.92;;;15.40;99.90;;;;;;4917191;29;20058;-64
2022/11/01 10:24:01;;;;;;;13.05;2.55;;;15.40;99.90;;;;;;4932424;29;20046;-64
2022/11/01 10:26:29;;;;;;;14.30;2.17;;;15.40;99.90;;;;;;4914534;29;20388;-63
2022/11/01 10:29:07;;;;;;;13.63;2.50;;;15.40;99.90;;;;;;4921909;29;20051;-64
2022/11/01 10:31:40;;;;;;;12.00;2.00;;;15.30;99.90;;;;;;4936138;29;20036;-64
2022/11/01 10:34:26;;;;;;;11.00;2.17;;;15.20;99.90;;;;;;4932639;29;20094;-64
2022/11/01 10:36:58;;;;;;;15.55;2.28;;;15.40;99.90;;;;;;4932545;29;20027;-64
2022/11/01 10:39:44;;;;;;;8.18;1.90;;;15.50;99.90;;;;;;4932953;29;20580;-64
2022/11/01 10:42:15;;;;;;;13.75;2.58;;;15.40;99.90;;;;;;4933485;29;20038;-63
2022/11/01 10:44:55;;;;;;;11.80;2.05;;;15.30;99.90;;;;;;4932477;29;20043;-64
2022/11/01 10:47:22;;;;;;;8.98;1.98;;;15.40;99.90;;;;;;4934366;29;20048;-64
2022/11/01 10:49:56;;;;;;;10.95;2.50;;;15.40;99.90;;;;;;4917927;29;20212;-63
2022/11/01 10:52:30;;;;;;;11.43;1.85;;;15.60;99.90;;;;;;4933025;29;20038;-66
2022/11/01 10:54:58;;;;;;;11.93;2.58;;;15.80;99.90;;;;;;4936350;29;20052;-64
2022/11/01 10:57:24;;;;;;;11.00;2.13;;;15.90;99.90;;;;;;4933540;29;20071;-63
2022/11/01 10:59:50;;;;;;;13.73;2.58;;;15.90;99.90;;;;;;4918817;29;20440;-65
2022/11/01 11:02:23;;;;;;;16.90;2.15;;;16.00;99.90;;;;;;4935966;29;20052;-63
2022/11/01 11:04:48;;;;;;;15.45;2.58;;;15.80;99.70;;;;;;4934763;29;20543;-63
2022/11/01 11:07:16;;;;;;;19.67;2.95;;;15.80;99.90;;;;;;4931228;29;20115;-64
2022/11/01 11:09:42;;;;;;;12.10;1.98;;;15.70;99.90;;;;;;4934159;29;20111;-64
2022/11/01 11:12:27;;;;;;;8.45;2.03;;;15.70;99.90;;;;;;4932417;29;20132;-65
2022/11/01 11:15:00;;;;;;;18.10;2.38;;;15.60;99.90;;;;;;4922098;29;20080;-62
2022/11/01 11:17:42;;;;;;;14.77;2.30;;;15.60;99.90;;;;;;4930977;29;20353;-62
2022/11/01 11:20:12;;;;;;;9.27;1.90;;;15.50;99.90;;;;;;4919292;29;20488;-64
2022/11/01 11:22:40;;;;;;;;;;;15.50;99.90;;;;;;4932788;29;20062;-64
2022/11/01 11:25:13;;;;;;;13.63;2.70;;;15.40;99.90;;;;;;4931472;29;19971;-65
2022/11/01 11:27:44;;;;;;;12.60;2.67;;;15.60;99.90;;;;;;4919534;29;20052;-64
2022/11/01 11:30:12;;;;;;;13.98;2.65;;;15.70;99.90;;;;;;4929221;29;20040;-63
2022/11/01 11:32:46;;;;;;;12.70;3.15;;;15.60;99.90;;;;;;4927038;29;20073;-64
2022/11/01 11:35:12;;;;;;;12.43;2.05;;;15.70;99.90;;;;;;4919549;29;20420;-63
2022/11/01 11:37:38;;;;;;;9.98;2.25;;;15.80;99.90;;;;;;4918912;29;20055;-65
2022/11/01 11:40:17;;;;;;;15.05;3.13;;;15.80;99.90;;;;;;4916640;29;20056;-65
2022/11/01 11:42:44;;;;;;;13.30;2.55;;;15.80;99.90;;;;;;4932060;29;20050;-64
2022/11/01 11:45:39;;;;;;;20.95;3.33;;;15.90;99.90;;;;;;4934752;29;20048;-65
2022/11/01 11:48:19;;;;;;;10.38;2.22;;;15.80;99.90;;;;;;4919207;29;20047;-65
2022/11/01 11:50:45;;;;;;;14.88;2.55;;;16.00;99.90;;;;;;4930108;29;20038;-64
2022/11/01 11:53:17;;;;;;;11.95;2.90;;;16.00;99.90;;;;;;4934654;29;20487;-65
2022/11/01 11:55:54;;;;;;;10.60;2.38;;;16.20;99.90;;;;;;4931267;29;20119;-64
2022/11/01 11:58:31;;;;;;;11.98;2.03;;;16.20;99.90;;;;;;4932915;29;20059;-64
2022/11/01 12:01:12;;;;;;;10.50;2.17;;;16.20;99.90;;;;;;4915494;29;20528;-63
2022/11/01 12:03:48;;;;;;;10.05;2.15;;;16.00;99.90;;;;;;4931228;29;20071;-65
2022/11/01 12:06:41;;;;;;;15.07;3.05;;;16.00;99.90;;;;;;4928092;29;20135;-63
2022/11/01 12:09:31;;;;;;;15.60;2.58;;;16.00;99.90;;;;;;4915437;29;20055;-64
2022/11/01 12:12:24;;;;;;;18.52;2.60;;;16.00;99.90;;;;;;4930708;29;20090;-65
2022/11/01 12:14:51;;;;;;;12.95;2.50;;;16.10;99.90;;;;;;4931742;29;20106;-64
2022/11/01 12:17:42;;;;;;;13.90;1.83;;;16.20;99.90;;;;;;4933830;29;20638;-62
2022/11/01 12:20:11;;;;;;;9.75;2.17;;;16.20;99.90;;;;;;4918813;29;20048;-62
2022/11/01 12:22:39;;;;;;;12.75;2.28;;;16.10;99.90;;;;;;4915408;29;20543;-64
2022/11/01 12:25:14;;;;;;;11.57;2.30;;;16.10;99.90;;;;;;4930721;29;20048;-63
2022/11/01 12:27:48;;;;;;;11.32;2.10;;;16.30;99.90;;;;;;4917439;29;20441;-63
2022/11/01 12:30:21;;;;;;;9.02;1.92;;;16.40;99.90;;;;;;4933506;29;20082;-64
2022/11/01 12:32:53;;;;;;;10.98;2.33;;;16.50;99.30;;;;;;4932261;29;20095;-63
2022/11/01 12:35:33;;;;;;;8.40;1.85;;;16.50;99.70;;;;;;4935595;29;20106;-64
2022/11/01 12:38:28;;;;;;;11.98;2.65;;;16.50;98.10;;;;;;4915823;29;20052;-65
2022/11/01 12:40:56;;;;;;;9.25;2.05;;;16.50;99.80;;;;;;4915986;29;20505;-63
2022/11/01 12:43:31;;;;;;;8.50;2.00;;;16.50;99.80;;;;;;4915329;29;20456;-63
2022/11/01 12:46:02;;;;;;;15.20;2.33;;;16.50;99.90;;;;;;4916858;29;20048;-63
2022/11/01 12:48:41;;;;;;;15.52;1.98;;;16.40;99.10;;;;;;4922465;29;20054;-63
2022/11/01 12:51:21;;;;;;;11.18;1.58;;;16.40;99.10;;;;;;4918349;29;20043;-64
2022/11/01 12:53:58;;;;;;;9.90;2.30;;;16.40;99.30;;;;;;4931413;29;20530;-64
2022/11/01 12:56:25;;;;;;;8.02;1.90;;;16.50;99.00;;;;;;4933474;29;20036;-63
2022/11/01 12:58:52;;;;;;;12.55;2.47;;;16.50;98.80;;;;;;4932428;29;20091;-62